sensor_id;sensor_type;location;lat;lon;timestamp;pressure;altitude;pressure_sealevel;temperature;humidity
25560;BME280;13450;49.374;8.584;2023-03-18T00:02:09;100030.84;;;9.80;100.00
25560;BME280;13450;49.374;8.584;2023-03-18T00:04:35;100030.41;;;9.76;100.00
25560;BME280;13450;49.374;8.584;2023-03-18T00:07:03;100032.84;;;9.71;100.00
25560;BME280;13450;49.374;8.584;2023-03-18T00:09:28;100031.94;;;9.64;100.00
25560;BME280;13450;49.374;8.584;2023-03-18T00:11:56;100033.50;;;9.58;100.00
25560;BME280;13450;49.374;8.584;2023-03-18T00:14:22;100038.41;;;9.54;100.00
25560;BME280;13450;49.374;8.584;2023-03-18T00:16:47;100039.78;;;9.50;100.00
25560;BME280;13450;49.374;8.584;2023-03-18T00:19:13;100049.00;;;9.48;100.00
25560;BME280;13450;49.374;8.584;2023-03-18T00:21:39;100049.59;;;9.43;100.00
25560;BME280;13450;49.374;8.584;2023-03-18T00:24:04;100052.25;;;9.43;100.00
25560;BME280;13450;49.374;8.584;2023-03-18T00:26:32;100047.91;;;9.42;100.00
25560;BME280;13450;49.374;8.584;2023-03-18T00:28:58;100048.94;;;9.41;100.00
25560;BME280;13450;49.374;8.584;2023-03-18T00:31:24;100051.78;;;9.39;100.00
25560;BME280;13450;49.374;8.584;2023-03-18T00:33:50;100049.94;;;9.40;100.00
25560;BME280;13450;49.374;8.584;2023-03-18T00:36:16;100056.31;;;9.39;100.00
25560;BME280;13450;49.374;8.584;2023-03-18T00:38:44;100056.31;;;9.39;100.00
25560;BME280;13450;49.374;8.584;2023-03-18T00:41:15;100057.31;;;9.38;100.00
25560;BME280;13450;49.374;8.584;2023-03-18T00:43:44;100060.38;;;9.35;100.00
25560;BME280;13450;49.374;8.584;2023-03-18T00:46:15;100056.03;;;9.34;100.00
25560;BME280;13450;49.374;8.584;2023-03-18T00:48:45;100068.75;;;9.32;100.00
25560;BME280;13450;49.374;8.584;2023-03-18T00:51:12;100068.13;;;9.29;100.00
25560;BME280;13450;49.374;8.584;2023-03-18T00:53:40;100070.88;;;9.21;100.00
25560;BME280;13450;49.374;8.584;2023-03-18T00:56:06;100076.56;;;9.18;100.00
25560;BME280;13450;49.374;8.584;2023-03-18T00:58:34;100069.94;;;9.14;100.00
25560;BME280;13450;49.374;8.584;2023-03-18T01:01:01;100069.69;;;9.09;100.00
25560;BME280;13450;49.374;8.584;2023-03-18T01:03:26;100081.72;;;9.05;100.00
25560;BME280;13450;49.374;8.584;2023-03-18T01:05:52;100077.78;;;9.00;100.00
25560;BME280;13450;49.374;8.584;2023-03-18T01:08:20;100076.94;;;9.00;100.00
25560;BME280;13450;49.374;8.584;2023-03-18T01:10:46;100074.66;;;8.97;100.00
25560;BME280;13450;49.374;8.584;2023-03-18T01:13:14;100073.19;;;8.94;100.00
25560;BME280;13450;49.374;8.584;2023-03-18T01:15:40;100063.50;;;8.93;100.00
25560;BME280;13450;49.374;8.584;2023-03-18T01:18:06;100070.69;;;8.93;100.00
25560;BME280;13450;49.374;8.584;2023-03-18T01:20:36;100071.88;;;8.90;100.00
25560;BME280;13450;49.374;8.584;2023-03-18T01:23:02;100067.56;;;8.89;100.00
25560;BME280;13450;49.374;8.584;2023-03-18T01:25:30;100068.56;;;8.88;100.00
25560;BME280;13450;49.374;8.584;2023-03-18T01:27:56;100066.28;;;8.85;100.00
25560;BME280;13450;49.374;8.584;2023-03-18T01:30:22;100073.63;;;8.83;100.00
25560;BME280;13450;49.374;8.584;2023-03-18T01:32:48;100069.94;;;8.84;100.00
25560;BME280;13450;49.374;8.584;2023-03-18T01:35:16;100068.63;;;8.80;100.00
25560;BME280;13450;49.374;8.584;2023-03-18T01:37:44;100068.63;;;8.80;100.00
25560;BME280;13450;49.374;8.584;2023-03-18T01:40:13;100067.81;;;8.79;100.00
25560;BME280;13450;49.374;8.584;2023-03-18T01:42:46;100069.03;;;8.76;100.00
25560;BME280;13450;49.374;8.584;2023-03-18T01:45:25;100061.03;;;8.76;100.00
25560;BME280;13450;49.374;8.584;2023-03-18T01:47:53;100057.31;;;8.77;100.00
25560;BME280;13450;49.374;8.584;2023-03-18T01:50:24;100063.84;;;8.75;100.00
25560;BME280;13450;49.374;8.584;2023-03-18T01:52:54;100062.03;;;8.75;100.00
25560;BME280;13450;49.374;8.584;2023-03-18T01:55:23;100066.34;;;8.76;100.00
25560;BME280;13450;49.374;8.584;2023-03-18T01:57:49;100058.53;;;8.75;100.00
25560;BME280;13450;49.374;8.584;2023-03-18T02:00:18;100060.06;;;8.69;100.00
25560;BME280;13450;49.374;8.584;2023-03-18T02:02:45;100058.78;;;8.65;100.00
25560;BME280;13450;49.374;8.584;2023-03-18T02:05:16;100056.28;;;8.63;100.00
25560;BME280;13450;49.374;8.584;2023-03-18T02:07:44;100047.84;;;8.60;100.00
25560;BME280;13450;49.374;8.584;2023-03-18T02:10:36;100057.03;;;8.57;100.00
25560;BME280;13450;49.374;8.584;2023-03-18T02:13:04;100054.34;;;8.57;100.00
25560;BME280;13450;49.374;8.584;2023-03-18T02:15:35;100050.53;;;8.51;100.00
25560;BME280;13450;49.374;8.584;2023-03-18T02:18:06;100052.28;;;8.44;100.00
25560;BME280;13450;49.374;8.584;2023-03-18T02:20:37;100062.28;;;8.42;100.00
25560;BME280;13450;49.374;8.584;2023-03-18T02:23:25;100065.97;;;8.41;100.00
25560;BME280;13450;49.374;8.584;2023-03-18T02:26:02;100063.47;;;8.40;100.00
25560;BME280;13450;49.374;8.584;2023-03-18T02:28:33;100060.34;;;8.36;100.00
25560;BME280;13450;49.374;8.584;2023-03-18T02:31:03;100068.34;;;8.36;100.00
25560;BME280;13450;49.374;8.584;2023-03-18T02:33:34;100067.50;;;8.35;100.00
25560;BME280;13450;49.374;8.584;2023-03-18T02:36:08;100063.03;;;8.36;100.00
25560;BME280;13450;49.374;8.584;2023-03-18T02:38:39;100067.50;;;8.35;100.00
25560;BME280;13450;49.374;8.584;2023-03-18T02:41:05;100067.16;;;8.38;100.00
25560;BME280;13450;49.374;8.584;2023-03-18T02:43:33;100070.13;;;8.44;100.00
25560;BME280;13450;49.374;8.584;2023-03-18T02:46:21;100084.56;;;8.49;100.00
25560;BME280;13450;49.374;8.584;2023-03-18T02:48:51;100079.72;;;8.53;100.00
25560;BME280;13450;49.374;8.584;2023-03-18T02:51:19;100081.03;;;8.57;100.00
25560;BME280;13450;49.374;8.584;2023-03-18T02:53:46;100077.84;;;8.62;100.00
25560;BME280;13450;49.374;8.584;2023-03-18T02:56:11;100079.47;;;8.63;100.00
25560;BME280;13450;49.374;8.584;2023-03-18T02:58:37;100081.78;;;8.66;100.00
25560;BME280;13450;49.374;8.584;2023-03-18T03:01:03;100085.09;;;8.68;100.00
25560;BME280;13450;49.374;8.584;2023-03-18T03:03:32;100087.59;;;8.70;100.00
25560;BME280;13450;49.374;8.584;2023-03-18T03:05:59;100076.75;;;8.71;100.00
25560;BME280;13450;49.374;8.584;2023-03-18T03:08:25;100072.03;;;8.73;100.00
25560;BME280;13450;49.374;8.584;2023-03-18T03:10:51;100080.72;;;8.75;100.00
25560;BME280;13450;49.374;8.584;2023-03-18T03:13:18;100079.50;;;8.78;100.00
25560;BME280;13450;49.374;8.584;2023-03-18T03:15:44;100076.47;;;8.81;100.00
25560;BME280;13450;49.374;8.584;2023-03-18T03:18:09;100074.91;;;8.87;100.00
25560;BME280;13450;49.374;8.584;2023-03-18T03:20:38;100074.56;;;8.90;100.00
25560;BME280;13450;49.374;8.584;2023-03-18T03:23:07;100087.81;;;8.98;100.00
25560;BME280;13450;49.374;8.584;2023-03-18T03:25:34;100095.25;;;9.03;100.00
25560;BME280;13450;49.374;8.584;2023-03-18T03:27:59;100092.88;;;9.08;100.00
25560;BME280;13450;49.374;8.584;2023-03-18T03:30:25;100098.28;;;9.15;100.00
25560;BME280;13450;49.374;8.584;2023-03-18T03:32:51;100087.25;;;9.18;100.00
25560;BME280;13450;49.374;8.584;2023-03-18T03:35:18;100095.53;;;9.23;100.00
25560;BME280;13450;49.374;8.584;2023-03-18T03:37:43;100087.16;;;9.26;100.00
25560;BME280;13450;49.374;8.584;2023-03-18T03:40:10;100091.13;;;9.31;100.00
25560;BME280;13450;49.374;8.584;2023-03-18T03:42:36;100095.25;;;9.33;100.00
25560;BME280;13450;49.374;8.584;2023-03-18T03:45:03;100090.56;;;9.35;100.00
25560;BME280;13450;49.374;8.584;2023-03-18T03:47:29;100095.91;;;9.35;100.00
25560;BME280;13450;49.374;8.584;2023-03-18T03:49:55;100103.53;;;9.38;100.00
25560;BME280;13450;49.374;8.584;2023-03-18T03:52:21;100099.03;;;9.39;100.00
25560;BME280;13450;49.374;8.584;2023-03-18T03:54:47;100104.00;;;9.42;100.00
25560;BME280;13450;49.374;8.584;2023-03-18T03:57:12;100106.47;;;9.44;100.00
25560;BME280;13450;49.374;8.584;2023-03-18T03:59:38;100104.25;;;9.47;100.00
25560;BME280;13450;49.374;8.584;2023-03-18T04:02:03;100111.53;;;9.53;100.00
25560;BME280;13450;49.374;8.584;2023-03-18T04:04:28;100118.53;;;9.54;100.00
25560;BME280;13450;49.374;8.584;2023-03-18T04:06:54;100111.19;;;9.57;100.00
25560;BME280;13450;49.374;8.584;2023-03-18T04:09:20;100111.19;;;9.57;100.00
25560;BME280;13450;49.374;8.584;2023-03-18T04:11:46;100111.53;;;9.53;100.00
25560;BME280;13450;49.374;8.584;2023-03-18T04:14:11;100115.78;;;9.48;100.00
25560;BME280;13450;49.374;8.584;2023-03-18T04:16:41;100112.00;;;9.42;100.00
25560;BME280;13450;49.374;8.584;2023-03-18T04:19:08;100118.09;;;9.36;100.00
25560;BME280;13450;49.374;8.584;2023-03-18T04:21:35;100109.81;;;9.31;100.00
25560;BME280;13450;49.374;8.584;2023-03-18T04:24:01;100115.97;;;9.31;100.00
25560;BME280;13450;49.374;8.584;2023-03-18T04:26:28;100110.00;;;9.29;100.00
25560;BME280;13450;49.374;8.584;2023-03-18T04:28:53;100117.81;;;9.31;100.00
25560;BME280;13450;49.374;8.584;2023-03-18T04:31:19;100112.50;;;9.31;100.00
25560;BME280;13450;49.374;8.584;2023-03-18T04:33:44;100110.84;;;9.29;100.00
25560;BME280;13450;49.374;8.584;2023-03-18T04:36:09;100114.50;;;9.28;100.00
25560;BME280;13450;49.374;8.584;2023-03-18T04:38:35;100112.84;;;9.27;100.00
25560;BME280;13450;49.374;8.584;2023-03-18T04:41:00;100119.84;;;9.28;100.00
25560;BME280;13450;49.374;8.584;2023-03-18T04:43:25;100116.53;;;9.26;100.00
25560;BME280;13450;49.374;8.584;2023-03-18T04:45:54;100121.53;;;9.29;100.00
25560;BME280;13450;49.374;8.584;2023-03-18T04:48:22;100122.50;;;9.28;100.00
25560;BME280;13450;49.374;8.584;2023-03-18T04:50:48;100119.03;;;9.28;100.00
25560;BME280;13450;49.374;8.584;2023-03-18T04:53:14;100113.69;;;9.28;100.00
25560;BME280;13450;49.374;8.584;2023-03-18T04:55:39;100113.03;;;9.26;100.00
25560;BME280;13450;49.374;8.584;2023-03-18T04:58:05;100112.22;;;9.25;100.00
25560;BME280;13450;49.374;8.584;2023-03-18T05:00:30;100106.88;;;9.25;100.00
25560;BME280;13450;49.374;8.584;2023-03-18T05:02:56;100111.19;;;9.26;100.00
25560;BME280;13450;49.374;8.584;2023-03-18T05:05:21;100123.53;;;9.27;100.00
25560;BME280;13450;49.374;8.584;2023-03-18T05:07:47;100118.19;;;9.27;100.00
25560;BME280;13450;49.374;8.584;2023-03-18T05:10:12;100125.19;;;9.28;100.00
25560;BME280;13450;49.374;8.584;2023-03-18T05:12:39;100121.88;;;9.26;100.00
25560;BME280;13450;49.374;8.584;2023-03-18T05:15:05;100132.56;;;9.26;100.00
25560;BME280;13450;49.374;8.584;2023-03-18T05:17:31;100127.56;;;9.23;100.00
25560;BME280;13450;49.374;8.584;2023-03-18T05:19:56;100133.66;;;9.17;100.00
25560;BME280;13450;49.374;8.584;2023-03-18T05:22:23;100134.59;;;9.09;100.00
25560;BME280;13450;49.374;8.584;2023-03-18T05:24:49;100137.16;;;9.02;100.00
25560;BME280;13450;49.374;8.584;2023-03-18T05:27:17;100127.19;;;8.96;100.00
25560;BME280;13450;49.374;8.584;2023-03-18T05:29:43;100129.94;;;8.88;100.00
25560;BME280;13450;49.374;8.584;2023-03-18T05:32:10;100136.47;;;8.85;100.00
25560;BME280;13450;49.374;8.584;2023-03-18T05:34:37;100126.97;;;8.83;100.00
25560;BME280;13450;49.374;8.584;2023-03-18T05:37:05;100130.31;;;8.85;100.00
25560;BME280;13450;49.374;8.584;2023-03-18T05:39:31;100130.78;;;8.88;100.00
25560;BME280;13450;49.374;8.584;2023-03-18T05:41:58;100132.25;;;8.91;100.00
25560;BME280;13450;49.374;8.584;2023-03-18T05:44:24;100131.22;;;8.92;100.00
25560;BME280;13450;49.374;8.584;2023-03-18T05:46:50;100140.53;;;8.96;100.00
25560;BME280;13450;49.374;8.584;2023-03-18T05:49:17;100137.69;;;8.98;100.00
25560;BME280;13450;49.374;8.584;2023-03-18T05:51:43;100138.69;;;8.97;100.00
25560;BME280;13450;49.374;8.584;2023-03-18T05:54:09;100143.19;;;8.96;100.00
25560;BME280;13450;49.374;8.584;2023-03-18T05:56:34;100137.22;;;8.94;100.00
25560;BME280;13450;49.374;8.584;2023-03-18T05:59:00;100139.91;;;8.94;100.00
25560;BME280;13450;49.374;8.584;2023-03-18T06:01:25;100148.06;;;8.93;100.00
25560;BME280;13450;49.374;8.584;2023-03-18T06:03:50;100142.56;;;8.94;100.00
25560;BME280;13450;49.374;8.584;2023-03-18T06:06:17;100142.38;;;8.96;100.00
25560;BME280;13450;49.374;8.584;2023-03-18T06:08:44;100139.34;;;8.99;100.00
25560;BME280;13450;49.374;8.584;2023-03-18T06:11:16;100150.13;;;9.06;100.00
25560;BME280;13450;49.374;8.584;2023-03-18T06:13:44;100148.38;;;9.13;100.00
25560;BME280;13450;49.374;8.584;2023-03-18T06:16:10;100141.94;;;9.22;100.00
25560;BME280;13450;49.374;8.584;2023-03-18T06:18:36;100146.53;;;9.28;100.00
25560;BME280;13450;49.374;8.584;2023-03-18T06:21:02;100137.63;;;9.36;100.00
25560;BME280;13450;49.374;8.584;2023-03-18T06:23:28;100143.88;;;9.44;100.00
25560;BME280;13450;49.374;8.584;2023-03-18T06:25:56;100148.94;;;9.53;100.00
25560;BME280;13450;49.374;8.584;2023-03-18T06:28:22;100144.50;;;9.61;100.00
25560;BME280;13450;49.374;8.584;2023-03-18T06:30:48;100141.72;;;9.69;100.00
25560;BME280;13450;49.374;8.584;2023-03-18T06:33:14;100145.94;;;9.78;100.00
25560;BME280;13450;49.374;8.584;2023-03-18T06:35:39;100149.34;;;9.87;100.00
25560;BME280;13450;49.374;8.584;2023-03-18T06:38:05;100147.78;;;9.93;100.00
25560;BME280;13450;49.374;8.584;2023-03-18T06:40:34;100158.91;;;9.97;100.00
25560;BME280;13450;49.374;8.584;2023-03-18T06:43:00;100148.84;;;9.99;100.00
25560;BME280;13450;49.374;8.584;2023-03-18T06:45:25;100149.88;;;9.98;100.00
25560;BME280;13450;49.374;8.584;2023-03-18T06:47:51;100155.59;;;9.94;100.00
25560;BME280;13450;49.374;8.584;2023-03-18T06:50:17;100146.50;;;9.89;100.00
25560;BME280;13450;49.374;8.584;2023-03-18T06:52:42;100157.91;;;9.82;100.00
25560;BME280;13450;49.374;8.584;2023-03-18T06:55:08;100154.19;;;9.77;100.00
25560;BME280;13450;49.374;8.584;2023-03-18T06:57:34;100166.88;;;9.75;100.00
25560;BME280;13450;49.374;8.584;2023-03-18T07:00:02;100168.09;;;9.72;100.00
25560;BME280;13450;49.374;8.584;2023-03-18T07:02:29;100157.75;;;9.69;100.00
25560;BME280;13450;49.374;8.584;2023-03-18T07:04:54;100168.44;;;9.69;100.00
25560;BME280;13450;49.374;8.584;2023-03-18T07:07:20;100175.91;;;9.74;100.00
25560;BME280;13450;49.374;8.584;2023-03-18T07:09:48;100170.66;;;9.80;100.00
25560;BME280;13450;49.374;8.584;2023-03-18T07:12:14;100170.75;;;9.87;100.00
25560;BME280;13450;49.374;8.584;2023-03-18T07:14:43;100180.66;;;9.93;100.00
25560;BME280;13450;49.374;8.584;2023-03-18T07:17:08;100180.75;;;10.00;100.00
25560;BME280;13450;49.374;8.584;2023-03-18T07:19:34;100179.81;;;10.08;100.00
25560;BME280;13450;49.374;8.584;2023-03-18T07:21:59;100175.56;;;10.14;100.00
25560;BME280;13450;49.374;8.584;2023-03-18T07:24:26;100188.44;;;10.25;100.00
25560;BME280;13450;49.374;8.584;2023-03-18T07:26:53;100185.66;;;10.33;100.00
25560;BME280;13450;49.374;8.584;2023-03-18T07:29:20;100188.19;;;10.42;100.00
25560;BME280;13450;49.374;8.584;2023-03-18T07:31:46;100194.09;;;10.52;100.00
25560;BME280;13450;49.374;8.584;2023-03-18T07:34:12;100190.28;;;10.62;100.00
25560;BME280;13450;49.374;8.584;2023-03-18T07:36:40;100195.09;;;10.73;100.00
25560;BME280;13450;49.374;8.584;2023-03-18T07:39:07;100195.22;;;10.86;100.00
25560;BME280;13450;49.374;8.584;2023-03-18T07:41:34;100192.84;;;10.98;100.00
25560;BME280;13450;49.374;8.584;2023-03-18T07:44:00;100192.94;;;11.12;100.00
25560;BME280;13450;49.374;8.584;2023-03-18T07:46:25;100197.59;;;11.25;100.00
25560;BME280;13450;49.374;8.584;2023-03-18T07:48:51;100198.91;;;11.36;100.00
25560;BME280;13450;49.374;8.584;2023-03-18T07:51:17;100199.56;;;11.45;100.00
25560;BME280;13450;49.374;8.584;2023-03-18T07:53:42;100202.50;;;11.57;100.00
25560;BME280;13450;49.374;8.584;2023-03-18T07:56:08;100197.44;;;11.69;100.00
25560;BME280;13450;49.374;8.584;2023-03-18T07:58:34;100204.28;;;11.78;100.00
25560;BME280;13450;49.374;8.584;2023-03-18T08:01:00;100204.53;;;11.90;100.00
25560;BME280;13450;49.374;8.584;2023-03-18T08:03:26;100207.66;;;12.00;100.00
25560;BME280;13450;49.374;8.584;2023-03-18T08:05:52;100202.16;;;12.09;100.00
25560;BME280;13450;49.374;8.584;2023-03-18T08:08:17;100203.44;;;12.20;100.00
25560;BME280;13450;49.374;8.584;2023-03-18T08:10:43;100206.75;;;12.28;100.00
25560;BME280;13450;49.374;8.584;2023-03-18T08:13:08;100201.00;;;12.38;100.00
25560;BME280;13450;49.374;8.584;2023-03-18T08:15:37;100210.13;;;12.51;100.00
25560;BME280;13450;49.374;8.584;2023-03-18T08:18:02;100206.81;;;12.62;100.00
25560;BME280;13450;49.374;8.584;2023-03-18T08:20:30;100210.16;;;12.71;98.64
25560;BME280;13450;49.374;8.584;2023-03-18T08:22:56;100212.84;;;12.78;97.34
25560;BME280;13450;49.374;8.584;2023-03-18T08:25:21;100212.22;;;12.89;95.37
25560;BME280;13450;49.374;8.584;2023-03-18T08:27:48;100207.69;;;12.97;93.09
25560;BME280;13450;49.374;8.584;2023-03-18T08:30:13;100205.22;;;13.02;90.17
25560;BME280;13450;49.374;8.584;2023-03-18T08:32:39;100200.66;;;13.09;93.50
25560;BME280;13450;49.374;8.584;2023-03-18T08:35:05;100206.44;;;13.19;91.36
25560;BME280;13450;49.374;8.584;2023-03-18T08:37:31;100214.28;;;13.28;91.58
25560;BME280;13450;49.374;8.584;2023-03-18T08:39:56;100210.13;;;13.39;89.85
25560;BME280;13450;49.374;8.584;2023-03-18T08:42:22;100208.06;;;13.47;91.69
25560;BME280;13450;49.374;8.584;2023-03-18T08:44:49;100208.25;;;13.53;89.30
25560;BME280;13450;49.374;8.584;2023-03-18T08:47:15;100207.84;;;13.56;83.84
25560;BME280;13450;49.374;8.584;2023-03-18T08:49:40;100213.00;;;13.64;83.63
25560;BME280;13450;49.374;8.584;2023-03-18T08:52:05;100219.59;;;13.75;82.95
25560;BME280;13450;49.374;8.584;2023-03-18T08:54:31;100208.63;;;13.77;81.84
25560;BME280;13450;49.374;8.584;2023-03-18T08:56:56;100216.66;;;13.90;81.54
25560;BME280;13450;49.374;8.584;2023-03-18T08:59:23;100208.94;;;14.01;82.20
25560;BME280;13450;49.374;8.584;2023-03-18T09:01:49;100200.19;;;14.12;82.93
25560;BME280;13450;49.374;8.584;2023-03-18T09:04:15;100207.41;;;14.18;80.86
25560;BME280;13450;49.374;8.584;2023-03-18T09:06:40;100207.59;;;14.23;79.40
25560;BME280;13450;49.374;8.584;2023-03-18T09:09:08;100211.09;;;14.31;77.58
25560;BME280;13450;49.374;8.584;2023-03-18T09:11:33;100208.56;;;14.36;78.57
25560;BME280;13450;49.374;8.584;2023-03-18T09:13:59;100205.19;;;14.47;77.21
25560;BME280;13450;49.374;8.584;2023-03-18T09:16:25;100205.94;;;14.61;77.88
25560;BME280;13450;49.374;8.584;2023-03-18T09:18:50;100194.91;;;14.70;76.88
25560;BME280;13450;49.374;8.584;2023-03-18T09:21:15;100202.50;;;14.73;76.11
25560;BME280;13450;49.374;8.584;2023-03-18T09:23:41;100197.09;;;14.80;74.97
25560;BME280;13450;49.374;8.584;2023-03-18T09:26:07;100190.81;;;14.93;75.25
25560;BME280;13450;49.374;8.584;2023-03-18T09:28:32;100194.94;;;14.95;74.16
25560;BME280;13450;49.374;8.584;2023-03-18T09:30:58;100183.03;;;15.03;72.19
25560;BME280;13450;49.374;8.584;2023-03-18T09:33:25;100180.72;;;15.07;75.70
25560;BME280;13450;49.374;8.584;2023-03-18T09:35:51;100184.47;;;15.06;74.07
25560;BME280;13450;49.374;8.584;2023-03-18T09:38:18;100188.59;;;15.08;67.92
25560;BME280;13450;49.374;8.584;2023-03-18T09:41:01;100181.06;;;15.17;66.42
25560;BME280;13450;49.374;8.584;2023-03-18T09:43:59;100177.69;;;15.40;67.11
25560;BME280;13450;49.374;8.584;2023-03-18T09:49:42;100179.53;;;16.15;64.17
25560;BME280;13450;49.374;8.584;2023-03-18T09:54:44;100169.50;;;16.77;58.84
25560;BME280;13450;49.374;8.584;2023-03-18T09:57:20;100170.13;;;17.27;58.12
25560;BME280;13450;49.374;8.584;2023-03-18T09:59:50;100172.84;;;17.27;56.13
25560;BME280;13450;49.374;8.584;2023-03-18T10:05:31;100162.31;;;17.54;58.89
25560;BME280;13450;49.374;8.584;2023-03-18T10:08:03;100165.63;;;17.56;52.84
25560;BME280;13450;49.374;8.584;2023-03-18T10:10:37;100168.06;;;17.70;54.01
25560;BME280;13450;49.374;8.584;2023-03-18T10:13:15;100169.47;;;17.72;51.54
25560;BME280;13450;49.374;8.584;2023-03-18T10:15:46;100170.41;;;18.07;55.24
25560;BME280;13450;49.374;8.584;2023-03-18T10:21:01;100174.06;;;18.59;49.10
25560;BME280;13450;49.374;8.584;2023-03-18T10:29:02;100166.44;;;19.07;47.63
25560;BME280;13450;49.374;8.584;2023-03-18T10:31:38;100161.97;;;19.18;49.64
25560;BME280;13450;49.374;8.584;2023-03-18T10:34:14;100160.06;;;19.02;46.19
25560;BME280;13450;49.374;8.584;2023-03-18T10:36:54;100158.69;;;19.16;45.80
25560;BME280;13450;49.374;8.584;2023-03-18T10:39:26;100159.16;;;19.30;46.71
25560;BME280;13450;49.374;8.584;2023-03-18T10:41:57;100155.94;;;19.56;46.19
25560;BME280;13450;49.374;8.584;2023-03-18T10:44:33;100159.94;;;19.31;43.38
25560;BME280;13450;49.374;8.584;2023-03-18T10:47:08;100168.69;;;19.78;47.41
25560;BME280;13450;49.374;8.584;2023-03-18T10:49:40;100163.31;;;19.83;41.70
25560;BME280;13450;49.374;8.584;2023-03-18T10:55:16;100167.28;;;21.23;40.30
25560;BME280;13450;49.374;8.584;2023-03-18T10:57:42;100164.34;;;22.10;37.12
25560;BME280;13450;49.374;8.584;2023-03-18T11:00:25;100156.53;;;22.81;35.79
25560;BME280;13450;49.374;8.584;2023-03-18T11:02:51;100175.06;;;25.26;38.13
25560;BME280;13450;49.374;8.584;2023-03-18T11:05:30;100158.75;;;26.60;30.54
25560;BME280;13450;49.374;8.584;2023-03-18T11:07:58;100157.81;;;27.83;27.91
25560;BME280;13450;49.374;8.584;2023-03-18T11:10:31;100159.47;;;29.07;26.23
25560;BME280;13450;49.374;8.584;2023-03-18T11:12:58;100165.72;;;29.30;25.21
25560;BME280;13450;49.374;8.584;2023-03-18T11:15:28;100162.06;;;30.67;23.82
25560;BME280;13450;49.374;8.584;2023-03-18T11:18:00;100153.66;;;31.51;23.32
25560;BME280;13450;49.374;8.584;2023-03-18T11:20:41;100158.09;;;32.62;22.27
25560;BME280;13450;49.374;8.584;2023-03-18T11:28:44;100158.66;;;31.79;21.36
25560;BME280;13450;49.374;8.584;2023-03-18T11:31:56;100155.81;;;32.30;23.92
25560;BME280;13450;49.374;8.584;2023-03-18T11:34:43;100154.28;;;33.91;20.36
25560;BME280;13450;49.374;8.584;2023-03-18T11:37:42;100148.91;;;33.70;20.25
25560;BME280;13450;49.374;8.584;2023-03-18T11:43:26;100151.03;;;33.36;21.56
25560;BME280;13450;49.374;8.584;2023-03-18T11:46:09;100146.66;;;33.22;20.56
25560;BME280;13450;49.374;8.584;2023-03-18T11:52:09;100143.28;;;34.52;20.30
25560;BME280;13450;49.374;8.584;2023-03-18T12:00:22;100134.66;;;33.18;19.73
25560;BME280;13450;49.374;8.584;2023-03-18T12:11:12;100132.19;;;34.52;18.08
25560;BME280;13450;49.374;8.584;2023-03-18T12:20:10;100120.22;;;32.07;20.39
25560;BME280;13450;49.374;8.584;2023-03-18T12:23:04;100116.75;;;32.32;20.02
25560;BME280;13450;49.374;8.584;2023-03-18T12:25:49;100114.75;;;31.56;20.13
25560;BME280;13450;49.374;8.584;2023-03-18T12:28:23;100112.13;;;32.36;20.35
25560;BME280;13450;49.374;8.584;2023-03-18T12:31:23;100107.97;;;30.27;21.34
25560;BME280;13450;49.374;8.584;2023-03-18T12:33:58;100106.75;;;28.82;23.03
25560;BME280;13450;49.374;8.584;2023-03-18T12:36:49;100102.59;;;26.86;25.24
25560;BME280;13450;49.374;8.584;2023-03-18T12:39:38;100094.41;;;26.53;25.07
25560;BME280;13450;49.374;8.584;2023-03-18T12:42:16;100099.91;;;26.53;25.39
25560;BME280;13450;49.374;8.584;2023-03-18T12:50:31;100109.63;;;25.29;27.72
25560;BME280;13450;49.374;8.584;2023-03-18T12:53:02;100103.00;;;25.11;28.56
25560;BME280;13450;49.374;8.584;2023-03-18T12:55:31;100102.34;;;24.65;28.93
25560;BME280;13450;49.374;8.584;2023-03-18T12:58:05;100098.91;;;24.84;28.95
25560;BME280;13450;49.374;8.584;2023-03-18T13:00:38;100093.72;;;24.53;28.94
25560;BME280;13450;49.374;8.584;2023-03-18T13:05:59;100081.03;;;26.51;27.22
25560;BME280;13450;49.374;8.584;2023-03-18T13:15:00;100082.78;;;27.31;25.37
25560;BME280;13450;49.374;8.584;2023-03-18T13:17:36;100075.28;;;26.95;26.70
25560;BME280;13450;49.374;8.584;2023-03-18T13:20:15;100072.44;;;27.28;25.71
25560;BME280;13450;49.374;8.584;2023-03-18T13:27:43;100070.19;;;29.75;23.40
25560;BME280;13450;49.374;8.584;2023-03-18T13:33:25;100074.72;;;29.53;23.28
25560;BME280;13450;49.374;8.584;2023-03-18T13:39:02;100077.75;;;31.18;21.47
25560;BME280;13450;49.374;8.584;2023-03-18T13:47:04;100067.38;;;30.37;22.22
25560;BME280;13450;49.374;8.584;2023-03-18T13:49:31;100069.84;;;31.80;21.06
25560;BME280;13450;49.374;8.584;2023-03-18T13:51:59;100073.28;;;33.57;19.48
25560;BME280;13450;49.374;8.584;2023-03-18T13:54:35;100067.91;;;33.11;19.74
25560;BME280;13450;49.374;8.584;2023-03-18T13:59:48;100065.09;;;34.34;19.22
25560;BME280;13450;49.374;8.584;2023-03-18T14:05:39;100062.19;;;33.57;19.81
25560;BME280;13450;49.374;8.584;2023-03-18T14:14:01;100056.31;;;31.15;20.79
25560;BME280;13450;49.374;8.584;2023-03-18T14:16:47;100063.63;;;31.19;21.13
25560;BME280;13450;49.374;8.584;2023-03-18T14:19:18;100055.25;;;28.82;22.87
25560;BME280;13450;49.374;8.584;2023-03-18T14:22:03;100053.81;;;27.39;24.75
25560;BME280;13450;49.374;8.584;2023-03-18T14:24:29;100050.38;;;26.91;25.07
25560;BME280;13450;49.374;8.584;2023-03-18T14:29:36;100041.38;;;26.29;26.29
25560;BME280;13450;49.374;8.584;2023-03-18T14:32:05;100040.16;;;26.16;28.55
25560;BME280;13450;49.374;8.584;2023-03-18T14:34:57;100044.28;;;25.23;27.39
25560;BME280;13450;49.374;8.584;2023-03-18T14:39:58;100041.19;;;24.56;27.41
25560;BME280;13450;49.374;8.584;2023-03-18T14:42:35;100044.28;;;25.23;27.48